createdAt,value
2022-09-23T00:00:54.463Z,99201.55
2022-09-23T00:01:56.979Z,99210.45
2022-09-23T00:02:59.499Z,99209.47
2022-09-23T00:04:01.917Z,99205.81
2022-09-23T00:05:04.352Z,99204.19
2022-09-23T00:06:07.191Z,99205.31
2022-09-23T00:07:09.662Z,99207.13
2022-09-23T00:08:12.132Z,99205.49
2022-09-23T00:09:14.579Z,99201.19
2022-09-23T00:10:17.645Z,99197.72
2022-09-23T00:11:20.079Z,99199.53
2022-09-23T00:12:22.557Z,99191.75
2022-09-23T00:13:24.997Z,99198.88
2022-09-23T00:14:27.441Z,99193.41
2022-09-23T00:15:29.910Z,99193.59
2022-09-23T00:16:32.771Z,99194.58
2022-09-23T00:17:35.440Z,99199.86
2022-09-23T00:18:37.912Z,99192.91
2022-09-23T00:19:40.353Z,99196.53
2022-09-23T00:20:43.019Z,99194.58
2022-09-23T00:21:45.661Z,99190.27
2022-09-23T00:22:48.146Z,99187.81
2022-09-23T00:23:50.579Z,99190.27
2022-09-23T00:24:53.050Z,99193.73
2022-09-23T00:25:55.494Z,99187.48
2022-09-23T00:26:58.135Z,99192.44
2022-09-23T00:28:00.616Z,99190.63
2022-09-23T00:29:03.366Z,99183.68
2022-09-23T00:30:06.099Z,99188.31
2022-09-23T00:31:08.644Z,99187.30
2022-09-23T00:32:11.198Z,99183.03
2022-09-23T00:33:13.660Z,99188.31
2022-09-23T00:34:16.093Z,99188.31
2022-09-23T00:35:18.543Z,99193.59
2022-09-23T00:36:21.185Z,99186.66
2022-09-23T00:37:23.616Z,99190.95
2022-09-23T00:38:26.081Z,99196.89
2022-09-23T00:39:28.540Z,99194.92
2022-09-23T00:40:31.355Z,99195.58
2022-09-23T00:41:33.942Z,99186.68
2022-09-23T00:42:36.381Z,99185.70
2022-09-23T00:43:38.877Z,99188.98
2022-09-23T00:44:41.300Z,99192.47
2022-09-23T00:45:43.761Z,99187.18
2022-09-23T00:46:46.389Z,99180.09
2022-09-23T00:47:48.823Z,99183.56
2022-09-23T00:48:51.290Z,99180.73
2022-09-23T00:49:53.732Z,99186.85
2022-09-23T00:50:56.471Z,99187.69
2022-09-23T00:51:58.960Z,99181.42
2022-09-23T00:53:01.393Z,99179.43
2022-09-23T00:54:03.857Z,99177.77
2022-09-23T00:55:06.338Z,99178.59
2022-09-23T00:56:09.501Z,99178.59
2022-09-23T00:57:11.926Z,99176.78
2022-09-23T00:58:14.422Z,99178.59
2022-09-23T00:59:16.886Z,99174.33
2022-09-23T01:00:19.587Z,99170.17
2022-09-23T01:01:22.381Z,99169.34
2022-09-23T01:02:25.317Z,99172.81
2022-09-23T01:03:27.785Z,99173.64
2022-09-23T01:04:30.459Z,99170.86
2022-09-23T01:05:33.140Z,99173.31
2022-09-23T01:06:35.905Z,99168.03
2022-09-23T01:07:38.340Z,99165.57
2022-09-23T01:08:40.776Z,99164.56
2022-09-23T01:09:43.260Z,99171.84
2022-09-23T01:10:45.907Z,99169.20
2022-09-23T01:11:48.351Z,99181.42
2022-09-23T01:12:50.784Z,99170.86
2022-09-23T01:13:53.218Z,99174.14
2022-09-23T01:14:55.785Z,99176.78
2022-09-23T01:15:58.232Z,99175.80
2022-09-23T01:17:01.004Z,99175.80
2022-09-23T01:18:03.515Z,99178.45
2022-09-23T01:19:05.954Z,99176.78
2022-09-23T01:20:09.028Z,99177.62
2022-09-23T01:21:11.995Z,99184.71
2022-09-23T01:22:14.643Z,99184.71
2022-09-23T01:23:17.279Z,99180.27
2022-09-23T01:24:19.723Z,99179.28
2022-09-23T01:25:22.228Z,99175.63
2022-09-23T01:26:24.854Z,99167.70
2022-09-23T01:27:27.341Z,99177.29
2022-09-23T01:28:29.782Z,99166.91
2022-09-23T01:29:32.244Z,99172.00
2022-09-23T01:30:34.918Z,99168.72
2022-09-23T01:31:37.565Z,99165.89
2022-09-23T01:32:40.009Z,99164.27
2022-09-23T01:33:42.450Z,99158.30
2022-09-23T01:34:44.892Z,99156.34
2022-09-23T01:35:47.503Z,99158.30
2022-09-23T01:36:50.239Z,99153.02
2022-09-23T01:37:52.714Z,99156.34
2022-09-23T01:38:55.170Z,99152.86
2022-09-23T01:39:57.607Z,99150.38
2022-09-23T01:41:00.305Z,99149.39
2022-09-23T01:42:02.743Z,99149.54
2022-09-23T01:43:05.186Z,99151.20
2022-09-23T01:44:07.671Z,99151.85
2022-09-23T01:45:10.116Z,99159.95
2022-09-23T01:46:13.026Z,99154.67
2022-09-23T01:47:15.566Z,99154.67
2022-09-23T01:48:18.110Z,99156.34
2022-09-23T01:49:20.788Z,99157.97
2022-09-23T01:50:23.332Z,99152.86
2022-09-23T01:51:25.816Z,99160.29
2022-09-23T01:52:28.286Z,99157.63
2022-09-23T01:53:30.745Z,99159.91
2022-09-23T01:54:33.193Z,99154.78
2022-09-23T01:55:35.644Z,99150.52
2022-09-23T01:56:38.512Z,99154.96
2022-09-23T01:57:40.957Z,99153.66
2022-09-23T01:58:43.418Z,99150.03
2022-09-23T01:59:45.871Z,99147.06
2022-09-23T02:00:48.516Z,99152.16
2022-09-23T02:01:51.292Z,99150.20
2022-09-23T02:02:53.771Z,99147.56
2022-09-23T02:03:56.305Z,99150.02
2022-09-23T02:04:58.785Z,99138.48
2022-09-23T02:06:01.202Z,99140.14
2022-09-23T02:07:03.679Z,99136.34
2022-09-23T02:08:06.121Z,99142.45
2022-09-23T02:09:08.606Z,99145.09
2022-09-23T02:10:11.626Z,99142.45
2022-09-23T02:11:14.098Z,99147.73
2022-09-23T02:12:16.583Z,99145.09
2022-09-23T02:13:19.030Z,99143.28
2022-09-23T02:14:21.510Z,99142.45
2022-09-23T02:15:23.948Z,99133.55
2022-09-23T02:16:26.759Z,99135.20
2022-09-23T02:17:29.300Z,99127.09
2022-09-23T02:18:31.769Z,99124.30
2022-09-23T02:19:34.216Z,99131.25
2022-09-23T02:20:36.771Z,99128.61
2022-09-23T02:21:39.410Z,99125.78
2022-09-23T02:22:42.209Z,99130.42
2022-09-23T02:23:44.656Z,99125.62
2022-09-23T02:24:47.111Z,99119.16
2022-09-23T02:25:49.557Z,99122.96
2022-09-23T02:26:52.247Z,99132.05
2022-09-23T02:27:54.722Z,99133.36
2022-09-23T02:28:57.186Z,99133.66
2022-09-23T02:29:59.632Z,99140.88
2022-09-23T02:31:02.282Z,99142.83
2022-09-23T02:32:04.968Z,99144.28
2022-09-23T02:33:07.740Z,99145.25
2022-09-23T02:34:10.161Z,99140.59
2022-09-23T02:35:12.606Z,99153.28
2022-09-23T02:36:15.861Z,99141.60
2022-09-23T02:37:18.306Z,99146.05
2022-09-23T02:38:20.776Z,99148.22
2022-09-23T02:39:23.223Z,99151.66
2022-09-23T02:40:25.754Z,99158.92
2022-09-23T02:41:28.667Z,99165.03
2022-09-23T02:42:31.109Z,99170.30
2022-09-23T02:43:33.621Z,99157.77
2022-09-23T02:44:36.067Z,99168.32
2022-09-23T02:45:38.543Z,99165.53
2022-09-23T02:46:41.064Z,99163.88
2022-09-23T02:47:43.564Z,99169.00
2022-09-23T02:48:46.134Z,99154.98
2022-09-23T02:49:48.565Z,99158.41
2022-09-23T02:50:51.415Z,99166.98
2022-09-23T02:51:53.861Z,99159.75
2022-09-23T02:52:56.345Z,99149.34
2022-09-23T02:53:58.877Z,99154.80
2022-09-23T02:55:01.384Z,99152.45
2022-09-23T02:56:04.146Z,99156.92
2022-09-23T02:57:06.595Z,99149.66
2022-09-23T02:58:09.154Z,99144.57
2022-09-23T02:59:11.670Z,99146.91
2022-09-23T03:00:14.831Z,99142.30
2022-09-23T03:01:17.466Z,99149.88
2022-09-23T03:02:20.930Z,99155.16
2022-09-23T03:03:23.551Z,99157.66
2022-09-23T03:04:26.020Z,99158.16
2022-09-23T03:05:28.462Z,99156.03
2022-09-23T03:06:31.099Z,99158.34
2022-09-23T03:07:33.544Z,99145.50
2022-09-23T03:08:35.981Z,99147.67
2022-09-23T03:09:38.481Z,99136.59
2022-09-23T03:10:41.241Z,99136.12
2022-09-23T03:11:43.700Z,99142.92
2022-09-23T03:12:46.170Z,99139.12
2022-09-23T03:13:48.612Z,99140.78
2022-09-23T03:14:51.100Z,99144.07
2022-09-23T03:15:53.576Z,99144.90
2022-09-23T03:16:56.025Z,99143.09
2022-09-23T03:17:58.473Z,99144.57
2022-09-23T03:19:00.913Z,99143.73
2022-09-23T03:20:03.699Z,99138.45
2022-09-23T03:21:06.129Z,99146.23
2022-09-23T03:22:08.572Z,99144.57
2022-09-23T03:23:11.141Z,99139.47
2022-09-23T03:24:13.586Z,99142.26
2022-09-23T03:25:16.067Z,99138.14
2022-09-23T03:26:19.112Z,99137.31
2022-09-23T03:27:21.565Z,99136.30
2022-09-23T03:28:24.003Z,99137.13
2022-09-23T03:29:26.482Z,99129.89
2022-09-23T03:30:29.215Z,99129.05
2022-09-23T03:31:31.716Z,99131.70
2022-09-23T03:32:34.198Z,99132.34
2022-09-23T03:33:36.629Z,99127.89
2022-09-23T03:34:39.084Z,99129.70
2022-09-23T03:35:41.610Z,99141.93
2022-09-23T03:36:44.257Z,99143.44
2022-09-23T03:37:46.717Z,99141.45
2022-09-23T03:38:49.144Z,99140.29
2022-09-23T03:39:51.591Z,99138.33
2022-09-23T03:40:54.135Z,99138.98
2022-09-23T03:41:57.059Z,99134.52
2022-09-23T03:42:59.510Z,99133.55
2022-09-23T03:44:01.945Z,99131.88
2022-09-23T03:45:04.491Z,99131.88
2022-09-23T03:46:07.451Z,99136.34
2022-09-23T03:47:10.035Z,99131.05
2022-09-23T03:48:12.483Z,99125.95
2022-09-23T03:49:15.162Z,99135.35
2022-09-23T03:50:18.010Z,99133.88
2022-09-23T03:51:20.519Z,99124.94
2022-09-23T03:52:22.952Z,99124.14
2022-09-23T03:53:25.391Z,99128.27
2022-09-23T03:54:27.819Z,99126.27
2022-09-23T03:55:30.268Z,99129.59
2022-09-23T03:56:33.192Z,99125.78
2022-09-23T03:57:35.656Z,99138.16
2022-09-23T03:58:38.150Z,99139.47
2022-09-23T03:59:40.637Z,99140.64
2022-09-23T04:00:43.257Z,99149.39
2022-09-23T04:01:46.008Z,99145.44
2022-09-23T04:02:48.918Z,99155.83
2022-09-23T04:03:51.365Z,99152.38
2022-09-23T04:04:53.834Z,99157.48
2022-09-23T04:05:56.454Z,99166.24
2022-09-23T04:06:59.276Z,99156.50
2022-09-23T04:08:01.731Z,99158.97
2022-09-23T04:09:04.208Z,99152.70
2022-09-23T04:10:06.984Z,99154.36
2022-09-23T04:11:09.430Z,99147.08
2022-09-23T04:12:12.015Z,99147.77
2022-09-23T04:13:14.577Z,99146.59
2022-09-23T04:14:17.054Z,99144.64
2022-09-23T04:15:19.500Z,99137.20
2022-09-23T04:16:22.466Z,99133.08
2022-09-23T04:17:25.088Z,99135.53
2022-09-23T04:18:27.547Z,99124.63
2022-09-23T04:19:29.997Z,99122.66
2022-09-23T04:20:32.756Z,99121.50
2022-09-23T04:21:35.314Z,99122.33
2022-09-23T04:22:37.827Z,99112.59
2022-09-23T04:23:40.307Z,99116.89
2022-09-23T04:24:42.781Z,99118.86
2022-09-23T04:25:45.408Z,99108.97
2022-09-23T04:26:48.073Z,99110.59
2022-09-23T04:27:50.637Z,99103.34
2022-09-23T04:28:53.083Z,99099.53
2022-09-23T04:29:55.587Z,99098.37
2022-09-23T04:30:58.156Z,99100.37
2022-09-23T04:32:00.701Z,99096.06
2022-09-23T04:33:03.210Z,99104.17
2022-09-23T04:34:05.681Z,99098.06
2022-09-23T04:35:08.143Z,99102.36
2022-09-23T04:36:11.188Z,99105.98
2022-09-23T04:37:13.660Z,99112.10
2022-09-23T04:38:16.194Z,99106.81
2022-09-23T04:39:18.639Z,99102.52
2022-09-23T04:40:21.367Z,99105.16
2022-09-23T04:41:23.881Z,99108.97
2022-09-23T04:42:26.691Z,99116.71
2022-09-23T04:43:29.211Z,99112.26
2022-09-23T04:44:31.725Z,99112.75
2022-09-23T04:45:34.186Z,99116.37
2022-09-23T04:46:36.838Z,99113.73
2022-09-23T04:47:39.427Z,99113.73
2022-09-23T04:48:42.028Z,99109.46
2022-09-23T04:49:44.518Z,99110.78
2022-09-23T04:50:47.374Z,99116.87
2022-09-23T04:51:49.842Z,99114.08
2022-09-23T04:52:52.340Z,99113.73
2022-09-23T04:53:54.857Z,99120.69
2022-09-23T04:54:57.354Z,99122.34
2022-09-23T04:55:59.800Z,99114.23
2022-09-23T04:57:02.256Z,99119.70
2022-09-23T04:58:04.799Z,99121.52
2022-09-23T04:59:07.407Z,99118.38
2022-09-23T05:00:10.469Z,99118.87
2022-09-23T05:01:12.995Z,99117.70
2022-09-23T05:02:15.536Z,99111.43
2022-09-23T05:03:18.052Z,99110.11
2022-09-23T05:04:20.572Z,99105.65
2022-09-23T05:05:23.005Z,99106.63
2022-09-23T05:06:25.819Z,99102.52
2022-09-23T05:07:28.709Z,99099.69
2022-09-23T05:08:31.178Z,99098.20
2022-09-23T05:09:33.745Z,99099.68
2022-09-23T05:10:36.548Z,99095.22
2022-09-23T05:11:39.018Z,99100.39
2022-09-23T05:12:41.467Z,99104.66
2022-09-23T05:13:43.938Z,99104.50
2022-09-23T05:14:46.424Z,99108.81
2022-09-23T05:15:48.966Z,99110.44
2022-09-23T05:16:51.966Z,99110.44
2022-09-23T05:17:54.436Z,99109.45
2022-09-23T05:18:56.909Z,99117.38
2022-09-23T05:19:59.432Z,99121.84
2022-09-23T05:21:02.001Z,99122.67
2022-09-23T05:22:04.668Z,99125.31
2022-09-23T05:23:07.130Z,99133.92
2022-09-23T05:24:09.574Z,99127.28
2022-09-23T05:25:12.053Z,99123.00
2022-09-23T05:26:15.918Z,99135.06
2022-09-23T05:27:18.365Z,99136.53
2022-09-23T05:28:20.839Z,99137.20
2022-09-23T05:29:23.633Z,99125.64
2022-09-23T05:30:27.121Z,99130.59
2022-09-23T05:31:29.825Z,99133.23
2022-09-23T05:32:32.548Z,99137.69
2022-09-23T05:33:35.033Z,99131.57
2022-09-23T05:34:37.490Z,99128.28
2022-09-23T05:35:39.972Z,99134.72
2022-09-23T05:36:42.693Z,99139.17
2022-09-23T05:37:45.169Z,99134.56
2022-09-23T05:38:47.644Z,99137.20
2022-09-23T05:39:50.209Z,99133.58
2022-09-23T05:40:52.784Z,99130.40
2022-09-23T05:41:55.368Z,99128.77
2022-09-23T05:42:57.835Z,99126.28
2022-09-23T05:44:00.278Z,99115.22
2022-09-23T05:45:02.755Z,99123.49
2022-09-23T05:46:08.133Z,99128.59
2022-09-23T05:47:09.896Z,99128.78
2022-09-23T05:48:12.489Z,99128.11
2022-09-23T05:49:15.016Z,99121.98
2022-09-23T05:50:18.616Z,99127.28
2022-09-23T05:51:21.368Z,99120.84
2022-09-23T05:52:23.855Z,99116.39
2022-09-23T05:53:26.329Z,99119.67
2022-09-23T05:54:28.812Z,99113.06
2022-09-23T05:55:31.253Z,99116.53
2022-09-23T05:56:33.951Z,99120.65
2022-09-23T05:57:36.397Z,99117.66
2022-09-23T05:58:38.876Z,99117.50
2022-09-23T05:59:41.366Z,99110.24
2022-09-23T06:00:44.019Z,99111.52
2022-09-23T06:01:46.743Z,99103.09
2022-09-23T06:02:49.404Z,99103.76
2022-09-23T06:03:51.998Z,99113.01
2022-09-23T06:04:54.455Z,99109.34
2022-09-23T06:05:56.928Z,99111.98
2022-09-23T06:07:03.240Z,99116.97
2022-09-23T06:08:04.257Z,99124.21
2022-09-23T06:09:06.870Z,99122.55
2022-09-23T06:10:10.214Z,99123.22
2022-09-23T06:11:12.823Z,99124.69
2022-09-23T06:12:15.321Z,99129.83
2022-09-23T06:13:17.823Z,99121.89
2022-09-23T06:14:20.581Z,99121.89
2022-09-23T06:15:23.120Z,99113.95
2022-09-23T06:16:25.981Z,99125.04
2022-09-23T06:17:28.579Z,99124.55
2022-09-23T06:18:31.051Z,99123.25
2022-09-23T06:19:33.532Z,99123.25
2022-09-23T06:20:36.310Z,99119.77
2022-09-23T06:21:38.756Z,99125.22
2022-09-23T06:22:41.380Z,99123.59
2022-09-23T06:23:44.003Z,99124.58
2022-09-23T06:24:46.477Z,99137.81
2022-09-23T06:25:48.926Z,99135.98
2022-09-23T06:26:51.706Z,99133.16
2022-09-23T06:27:54.280Z,99133.83
2022-09-23T06:28:56.871Z,99138.78
2022-09-23T06:29:59.325Z,99131.31
2022-09-23T06:31:02.053Z,99139.10
2022-09-23T06:32:04.575Z,99129.16
2022-09-23T06:33:07.106Z,99135.77
2022-09-23T06:34:12.914Z,99136.08
2022-09-23T06:35:24.649Z,99139.05
2022-09-23T06:36:35.384Z,99138.03
2022-09-23T06:37:23.693Z,99147.28
2022-09-23T06:38:26.192Z,99149.27
2022-09-23T06:39:28.665Z,99150.89
2022-09-23T06:40:32.976Z,99149.75
2022-09-23T06:41:35.507Z,99156.16
2022-09-23T06:42:38.247Z,99158.45
2022-09-23T06:43:41.111Z,99161.78
2022-09-23T06:44:43.581Z,99162.25
2022-09-23T06:45:46.269Z,99166.56
2022-09-23T06:46:49.489Z,99172.50
2022-09-23T06:47:51.958Z,99169.02
2022-09-23T06:48:54.450Z,99177.63
2022-09-23T06:49:57.233Z,99178.63
2022-09-23T06:51:00.124Z,99173.48
2022-09-23T06:52:02.601Z,99178.97
2022-09-23T06:53:05.086Z,99185.93
2022-09-23T06:54:07.718Z,99189.56
2022-09-23T06:55:10.499Z,99193.20
2022-09-23T06:56:13.835Z,99198.85
2022-09-23T06:57:16.288Z,99192.88
2022-09-23T06:58:18.769Z,99199.01
2022-09-23T06:59:21.479Z,99199.20
2022-09-23T07:00:24.136Z,99194.73
2022-09-23T07:01:26.924Z,99191.89
2022-09-23T07:02:30.304Z,99188.26
2022-09-23T07:03:33.058Z,99178.50
2022-09-23T07:04:35.583Z,99178.02
2022-09-23T07:05:38.038Z,99181.30
2022-09-23T07:06:40.929Z,99183.81
2022-09-23T07:07:43.450Z,99166.46
2022-09-23T07:08:45.921Z,99172.39
2022-09-23T07:09:48.432Z,99165.44
2022-09-23T07:10:51.192Z,99167.73
2022-09-23T07:11:53.642Z,99177.34
2022-09-23T07:12:56.127Z,99173.03
2022-09-23T07:13:58.649Z,99182.83
2022-09-23T07:15:01.179Z,99177.85
2022-09-23T07:16:04.034Z,99182.34
2022-09-23T07:17:06.557Z,99177.05
2022-09-23T07:18:09.858Z,99184.81
2022-09-23T07:19:12.472Z,99175.39
2022-09-23T07:20:15.782Z,99177.72
2022-09-23T07:21:19.073Z,99182.03
2022-09-23T07:22:21.571Z,99174.43
2022-09-23T07:23:24.021Z,99172.61
2022-09-23T07:24:26.470Z,99177.08
2022-09-23T07:25:28.999Z,99176.75
2022-09-23T07:26:31.809Z,99183.36
2022-09-23T07:27:34.290Z,99183.84
2022-09-23T07:28:36.834Z,99174.56
2022-09-23T07:29:48.200Z,99182.66
2022-09-23T07:30:55.731Z,99174.22
2022-09-23T07:31:48.553Z,99176.52
2022-09-23T07:32:51.126Z,99181.49
2022-09-23T07:33:53.644Z,99177.66
2022-09-23T07:34:56.101Z,99171.53
2022-09-23T07:35:58.717Z,99169.05
2022-09-23T07:37:01.575Z,99174.19
2022-09-23T07:38:04.068Z,99172.84
2022-09-23T07:39:06.544Z,99178.14
2022-09-23T07:40:09.633Z,99180.31
2022-09-23T07:41:12.326Z,99180.82
2022-09-23T07:42:14.908Z,99186.63
2022-09-23T07:43:17.414Z,99182.00
2022-09-23T07:44:19.918Z,99184.81
2022-09-23T07:45:22.370Z,99175.91
2022-09-23T07:46:24.999Z,99176.41
2022-09-23T07:47:27.838Z,99174.75
2022-09-23T07:48:34.158Z,99175.79
2022-09-23T07:49:34.707Z,99176.62
2022-09-23T07:50:37.535Z,99172.81
2022-09-23T07:51:40.024Z,99173.80
2022-09-23T07:52:42.481Z,99169.66
2022-09-23T07:53:44.960Z,99177.61
2022-09-23T07:54:47.434Z,99163.55
2022-09-23T07:55:50.009Z,99170.30
2022-09-23T07:56:52.757Z,99169.32
2022-09-23T07:57:55.220Z,99164.58
2022-09-23T07:58:57.694Z,99167.74
2022-09-23T08:00:00.145Z,99168.24
2022-09-23T08:01:02.742Z,99164.97
2022-09-23T08:02:05.238Z,99164.97
2022-09-23T08:03:07.772Z,99162.33
2022-09-23T08:04:10.330Z,99174.38
2022-09-23T08:05:12.781Z,99161.83
2022-09-23T08:06:15.768Z,99161.50
2022-09-23T08:07:18.344Z,99156.06
2022-09-23T08:08:20.799Z,99156.70
2022-09-23T08:09:23.269Z,99161.34
2022-09-23T08:10:26.040Z,99159.34
2022-09-23T08:11:28.725Z,99155.53
2022-09-23T08:12:31.327Z,99155.37
2022-09-23T08:13:33.838Z,99159.50
2022-09-23T08:14:36.293Z,99164.48
2022-09-23T08:15:38.814Z,99166.95
2022-09-23T08:16:41.458Z,99168.61
2022-09-23T08:17:45.288Z,99164.30
2022-09-23T08:18:47.775Z,99167.78
2022-09-23T08:19:50.454Z,99171.07
2022-09-23T08:20:53.040Z,99166.27
2022-09-23T08:21:55.531Z,99169.74
2022-09-23T08:22:58.030Z,99170.42
2022-09-23T08:24:00.610Z,99164.30
2022-09-23T08:25:03.202Z,99163.47
2022-09-23T08:26:08.497Z,99158.67
2022-09-23T08:27:10.517Z,99157.70
2022-09-23T08:28:12.997Z,99155.20
2022-09-23T08:29:15.549Z,99157.02
2022-09-23T08:30:18.937Z,99158.19
2022-09-23T08:31:21.439Z,99154.56
2022-09-23T08:32:23.993Z,99152.74
2022-09-23T08:33:26.507Z,99155.05
2022-09-23T08:34:28.960Z,99147.11
2022-09-23T08:35:31.430Z,99159.00
2022-09-23T08:36:34.055Z,99155.53
2022-09-23T08:37:36.662Z,99155.38
2022-09-23T08:38:39.449Z,99159.02
2022-09-23T08:39:41.923Z,99165.28
2022-09-23T08:40:44.738Z,99163.63
2022-09-23T08:41:47.251Z,99158.34
2022-09-23T08:42:49.707Z,99155.88
2022-09-23T08:43:52.225Z,99158.00
2022-09-23T08:44:54.690Z,99159.05
2022-09-23T08:45:57.209Z,99163.17
2022-09-23T08:46:59.829Z,99156.38
2022-09-23T08:48:02.334Z,99155.53
2022-09-23T08:49:04.834Z,99151.91
2022-09-23T08:50:07.452Z,99156.36
2022-09-23T08:51:09.924Z,99155.21
2022-09-23T08:52:12.402Z,99158.02
2022-09-23T08:53:14.894Z,99161.64
2022-09-23T08:54:17.441Z,99158.97
2022-09-23T08:55:19.899Z,99163.58
2022-09-23T08:56:22.684Z,99159.59
2022-09-23T08:57:25.135Z,99160.25
2022-09-23T08:58:27.623Z,99165.20
2022-09-23T08:59:30.207Z,99164.50
2022-09-23T09:00:32.992Z,99167.63
2022-09-23T09:01:35.514Z,99164.67
2022-09-23T09:02:38.060Z,99163.84
2022-09-23T09:03:40.595Z,99167.16
2022-09-23T09:04:43.102Z,99168.51
2022-09-23T09:05:53.945Z,99166.03
2022-09-23T09:06:53.906Z,99160.05
2022-09-23T09:07:54.646Z,99168.17
2022-09-23T09:08:57.098Z,99164.85
2022-09-23T09:09:59.590Z,99163.20
2022-09-23T09:11:02.041Z,99159.59
2022-09-23T09:12:04.505Z,99153.65
2022-09-23T09:13:06.951Z,99158.73
2022-09-23T09:14:09.439Z,99158.25
2022-09-23T09:15:11.947Z,99148.36
2022-09-23T09:16:14.880Z,99151.50
2022-09-23T09:17:17.418Z,99147.04
2022-09-23T09:18:19.950Z,99151.66
2022-09-23T09:19:22.483Z,99147.39
2022-09-23T09:20:25.259Z,99144.41
2022-09-23T09:21:27.739Z,99150.19
2022-09-23T09:22:30.245Z,99145.88
2022-09-23T09:23:32.982Z,99151.98
2022-09-23T09:24:35.435Z,99164.02
2022-09-23T09:25:37.942Z,99165.47
2022-09-23T09:26:40.649Z,99158.17
2022-09-23T09:27:43.085Z,99164.23
2022-09-23T09:28:45.555Z,99175.50
2022-09-23T09:29:50.062Z,99167.71
2022-09-23T09:30:52.597Z,99169.23
2022-09-23T09:31:55.264Z,99167.73
2022-09-23T09:32:57.741Z,99160.49
2022-09-23T09:34:00.184Z,99167.48
2022-09-23T09:35:02.834Z,99161.48
2022-09-23T09:36:05.526Z,99158.67
2022-09-23T09:37:08.015Z,99151.38
2022-09-23T09:38:10.484Z,99146.39
2022-09-23T09:39:12.973Z,99146.52
2022-09-23T09:40:16.000Z,99141.89
2022-09-23T09:41:18.622Z,99140.23
2022-09-23T09:42:21.079Z,99140.08
2022-09-23T09:43:23.748Z,99132.67
2022-09-23T09:44:26.263Z,99133.67
2022-09-23T09:45:28.931Z,99127.03
2022-09-23T09:46:31.669Z,99127.03
2022-09-23T09:47:34.184Z,99132.95
2022-09-23T09:48:36.659Z,99123.36
2022-09-23T09:49:40.679Z,99131.81
2022-09-23T09:50:43.579Z,99131.97
2022-09-23T09:51:46.447Z,99131.81
2022-09-23T09:52:48.866Z,99133.28
2022-09-23T09:53:51.338Z,99132.95
2022-09-23T09:54:53.838Z,99134.69
2022-09-23T09:55:58.031Z,99131.21
2022-09-23T09:57:00.849Z,99131.34
2022-09-23T09:58:03.308Z,99128.34
2022-09-23T09:59:05.824Z,99130.47
2022-09-23T10:00:09.041Z,99125.97
2022-09-23T10:01:11.543Z,99130.72
2022-09-23T10:02:14.534Z,99132.84
2022-09-23T10:03:16.988Z,99136.99
2022-09-23T10:04:19.486Z,99135.69
2022-09-23T10:05:21.990Z,99132.21
2022-09-23T10:06:24.824Z,99135.22
2022-09-23T10:07:27.296Z,99116.67
2022-09-23T10:08:29.774Z,99123.91
2022-09-23T10:09:32.320Z,99122.40
2022-09-23T10:10:35.124Z,99113.31
2022-09-23T10:11:37.854Z,99118.70
2022-09-23T10:12:40.376Z,99128.17
2022-09-23T10:13:42.832Z,99123.42
2022-09-23T10:14:45.307Z,99130.06
2022-09-23T10:15:47.756Z,99130.54
2022-09-23T10:16:50.560Z,99126.23
2022-09-23T10:17:53.202Z,99137.66
2022-09-23T10:18:55.706Z,99135.33
2022-09-23T10:19:58.155Z,99126.39
2022-09-23T10:21:00.862Z,99128.34
2022-09-23T10:22:03.838Z,99131.17
2022-09-23T10:23:06.342Z,99125.17
2022-09-23T10:24:08.817Z,99119.41
2022-09-23T10:25:11.298Z,99131.34
2022-09-23T10:26:15.600Z,99137.94
2022-09-23T10:27:18.072Z,99128.53
2022-09-23T10:28:20.618Z,99132.52
2022-09-23T10:29:23.106Z,99133.86
2022-09-23T10:30:26.200Z,99133.38
2022-09-23T10:31:28.663Z,99129.23
2022-09-23T10:32:31.207Z,99136.67
2022-09-23T10:33:33.752Z,99131.38
2022-09-23T10:34:36.244Z,99133.51
2022-09-23T10:35:38.828Z,99131.84
2022-09-23T10:36:44.550Z,99134.63
2022-09-23T10:37:45.944Z,99132.13
2022-09-23T10:38:48.500Z,99128.14
2022-09-23T10:39:50.961Z,99130.59
2022-09-23T10:40:53.839Z,99141.19
2022-09-23T10:41:56.515Z,99140.84
2022-09-23T10:42:59.033Z,99139.84
2022-09-23T10:44:01.543Z,99137.52
2022-09-23T10:45:03.992Z,99141.16
2022-09-23T10:46:06.789Z,99146.28
2022-09-23T10:47:09.320Z,99139.49
2022-09-23T10:48:11.794Z,99134.55
2022-09-23T10:49:14.460Z,99132.89
2022-09-23T10:50:17.153Z,99123.16
2022-09-23T10:51:23.938Z,99125.37
2022-09-23T10:52:24.015Z,99130.67
2022-09-23T10:53:26.491Z,99131.72
2022-09-23T10:54:29.037Z,99128.75
2022-09-23T10:55:31.524Z,99125.98
2022-09-23T10:56:34.131Z,99124.64
2022-09-23T10:57:36.619Z,99125.12
2022-09-23T10:58:39.243Z,99125.75
2022-09-23T10:59:42.074Z,99124.13
2022-09-23T11:00:44.767Z,99128.88
2022-09-23T11:01:47.484Z,99130.73
2022-09-23T11:02:50.031Z,99129.58
2022-09-23T11:03:52.546Z,99142.82
2022-09-23T11:04:55.061Z,99139.37
2022-09-23T11:05:57.589Z,99138.73
2022-09-23T11:07:00.492Z,99136.41
2022-09-23T11:08:02.946Z,99129.80
2022-09-23T11:09:05.445Z,99122.18
2022-09-23T11:10:18.410Z,99127.66
2022-09-23T11:11:13.220Z,99118.55
2022-09-23T11:12:15.924Z,99123.20
2022-09-23T11:13:18.379Z,99122.84
2022-09-23T11:14:20.903Z,99127.80
2022-09-23T11:15:23.439Z,99123.81
2022-09-23T11:16:26.152Z,99119.34
2022-09-23T11:17:28.707Z,99117.05
2022-09-23T11:18:31.190Z,99125.47
2022-09-23T11:19:33.661Z,99123.46
2022-09-23T11:20:36.468Z,99120.52
2022-09-23T11:21:38.926Z,99124.31
2022-09-23T11:22:41.414Z,99124.16
2022-09-23T11:23:43.874Z,99121.64
2022-09-23T11:24:46.416Z,99126.78
2022-09-23T11:25:48.891Z,99122.44
2022-09-23T11:26:51.574Z,99125.37
2022-09-23T11:27:54.033Z,99118.09
2022-09-23T11:28:56.510Z,99124.51
2022-09-23T11:29:59.004Z,99124.30
2022-09-23T11:31:02.039Z,99126.09
2022-09-23T11:32:04.961Z,99133.32
2022-09-23T11:33:07.439Z,99126.52
2022-09-23T11:34:09.984Z,99131.10
2022-09-23T11:35:12.487Z,99134.41
2022-09-23T11:36:15.304Z,99124.80
2022-09-23T11:37:17.780Z,99118.83
2022-09-23T11:38:20.234Z,99120.48
2022-09-23T11:39:22.716Z,99128.27
2022-09-23T11:40:25.382Z,99116.03
2022-09-23T11:41:28.662Z,99116.55
2022-09-23T11:42:31.216Z,99114.26
2022-09-23T11:43:33.724Z,99118.20
2022-09-23T11:44:36.180Z,99118.88
2022-09-23T11:45:38.726Z,99115.75
2022-09-23T11:46:41.523Z,99120.03
2022-09-23T11:47:43.995Z,99117.90
2022-09-23T11:48:46.481Z,99112.27
2022-09-23T11:49:48.983Z,99116.22
2022-09-23T11:50:51.650Z,99110.73
2022-09-23T11:51:54.158Z,99110.38
2022-09-23T11:52:56.612Z,99115.19
2022-09-23T11:53:59.097Z,99113.36
2022-09-23T11:55:04.837Z,99114.49
2022-09-23T11:56:06.377Z,99109.52
2022-09-23T11:57:08.877Z,99107.23
2022-09-23T11:58:22.649Z,99108.44
2022-09-23T11:59:15.960Z,99103.95
2022-09-23T12:00:19.444Z,99106.77
2022-09-23T12:01:30.457Z,99109.36
2022-09-23T12:02:30.446Z,99107.06
2022-09-23T12:03:41.670Z,99112.06
2022-09-23T12:04:35.916Z,99109.88
2022-09-23T12:05:39.355Z,99109.07
2022-09-23T12:06:42.163Z,99108.95
2022-09-23T12:07:44.657Z,99110.27
2022-09-23T12:08:47.140Z,99104.94
2022-09-23T12:09:58.092Z,99105.61
2022-09-23T12:10:54.329Z,99101.77
2022-09-23T12:11:56.785Z,99099.23
2022-09-23T12:12:59.377Z,99098.72
2022-09-23T12:14:01.864Z,99095.55
2022-09-23T12:15:04.340Z,99103.30
2022-09-23T12:16:07.120Z,99098.00